createdAt,value
2022-08-16T00:02:56.227Z,99537.66
2022-08-16T00:05:58.017Z,99542.28
2022-08-16T00:08:59.690Z,99536.53
2022-08-16T00:12:05.228Z,99538.38
2022-08-16T00:15:17.033Z,99531.56
2022-08-16T00:18:26.085Z,99536.53
2022-08-16T00:21:32.081Z,99547.62
2022-08-16T00:24:34.566Z,99552.34
2022-08-16T00:27:37.144Z,99556.50
2022-08-16T00:30:40.052Z,99559.56
2022-08-16T00:33:50.130Z,99558.84
2022-08-16T00:36:55.760Z,99556.06
2022-08-16T00:39:58.854Z,99565.50
2022-08-16T00:43:01.264Z,99565.28
2022-08-16T00:46:35.539Z,99568.03
2022-08-16T00:49:39.247Z,99563.19
2022-08-16T00:52:45.776Z,99555.75
2022-08-16T00:55:56.588Z,99563.91
2022-08-16T00:59:00.587Z,99552.44
2022-08-16T01:02:30.953Z,99549.88
2022-08-16T01:05:30.395Z,99546.34
2022-08-16T01:08:36.967Z,99560.00
2022-08-16T01:11:51.723Z,99562.34
2022-08-16T01:14:59.014Z,99551.47
2022-08-16T01:18:04.535Z,99559.72
2022-08-16T01:21:33.817Z,99568.88
2022-08-16T01:24:53.243Z,99562.75
2022-08-16T01:28:00.336Z,99569.47
2022-08-16T01:31:05.317Z,99563.09
2022-08-16T01:34:07.244Z,99565.38
2022-08-16T01:37:12.336Z,99570.75
2022-08-16T01:40:20.451Z,99557.19
2022-08-16T01:43:23.800Z,99559.06
2022-08-16T01:46:39.449Z,99557.63
2022-08-16T01:50:41.128Z,99558.44
2022-08-16T01:53:07.017Z,99556.38
2022-08-16T01:56:24.919Z,99560.16
2022-08-16T01:59:28.817Z,99559.03
2022-08-16T02:02:30.632Z,99556.53
2022-08-16T02:05:32.619Z,99549.88
2022-08-16T02:08:36.751Z,99550.19
2022-08-16T02:11:48.081Z,99554.41
2022-08-16T02:14:55.635Z,99545.06
2022-08-16T02:18:01.192Z,99548.81
2022-08-16T02:21:05.512Z,99549.78
2022-08-16T02:24:31.902Z,99556.28
2022-08-16T02:27:31.003Z,99553.06
2022-08-16T02:30:37.031Z,99540.28
2022-08-16T02:33:50.031Z,99547.72
2022-08-16T02:36:52.484Z,99551.22
2022-08-16T02:39:54.432Z,99549.00
2022-08-16T02:42:56.447Z,99550.34
2022-08-16T02:45:59.237Z,99542.84
2022-08-16T02:49:02.117Z,99550.09
2022-08-16T02:52:04.631Z,99537.84
2022-08-16T02:55:12.660Z,99544.13
2022-08-16T02:58:18.130Z,99536.28
2022-08-16T03:01:24.736Z,99541.19
2022-08-16T03:04:50.077Z,99538.63
2022-08-16T03:07:54.097Z,99542.91
2022-08-16T03:10:59.142Z,99542.81
2022-08-16T03:14:01.514Z,99538.63
2022-08-16T03:17:09.645Z,99535.84
2022-08-16T03:20:13.635Z,99538.81
2022-08-16T03:23:20.126Z,99558.41
2022-08-16T03:26:22.285Z,99558.53
2022-08-16T03:29:30.038Z,99558.78
2022-08-16T03:32:32.060Z,99568.44
2022-08-16T03:35:36.177Z,99565.84
2022-08-16T03:38:38.774Z,99573.25
2022-08-16T03:41:50.350Z,99573.63
2022-08-16T03:44:53.092Z,99580.13
2022-08-16T03:48:07.075Z,99580.28
2022-08-16T03:51:12.235Z,99577.84
2022-08-16T03:54:14.892Z,99585.62
2022-08-16T03:57:16.672Z,99592.69
2022-08-16T04:00:36.234Z,99586.38
2022-08-16T04:03:43.046Z,99602.25
2022-08-16T04:06:45.897Z,99603.88
2022-08-16T04:09:48.229Z,99605.31
2022-08-16T04:12:53.552Z,99607.19
2022-08-16T04:16:06.680Z,99607.28
2022-08-16T04:19:08.594Z,99611.56
2022-08-16T04:22:11.328Z,99608.78
2022-08-16T04:25:14.601Z,99620.19
2022-08-16T04:28:51.709Z,99619.22
2022-08-16T04:31:38.884Z,99626.19
2022-08-16T04:34:48.156Z,99623.50
2022-08-16T04:37:53.984Z,99625.06
2022-08-16T04:40:57.200Z,99623.88
2022-08-16T04:44:00.591Z,99628.00
2022-08-16T04:47:21.802Z,99614.53
2022-08-16T04:50:30.633Z,99618.78
2022-08-16T04:53:33.361Z,99618.41
2022-08-16T04:56:36.044Z,99613.66
2022-08-16T04:59:47.875Z,99610.13
2022-08-16T05:02:55.917Z,99616.12
2022-08-16T05:06:00.027Z,99613.28
2022-08-16T05:09:08.742Z,99609.75
2022-08-16T05:12:10.993Z,99614.88
2022-08-16T05:15:13.299Z,99613.25
2022-08-16T05:18:16.671Z,99611.41
2022-08-16T05:21:22.914Z,99608.81
2022-08-16T05:24:25.004Z,99610.19
2022-08-16T05:27:26.749Z,99607.72
2022-08-16T05:30:36.823Z,99611.16
2022-08-16T05:33:42.270Z,99616.88
2022-08-16T05:36:44.717Z,99618.63
2022-08-16T05:39:46.390Z,99617.47
2022-08-16T05:42:49.370Z,99629.34
2022-08-16T05:45:52.207Z,99626.50
2022-08-16T05:48:54.989Z,99626.59
2022-08-16T05:52:02.227Z,99620.37
2022-08-16T05:55:05.570Z,99624.50
2022-08-16T05:58:07.184Z,99630.69
2022-08-16T06:01:10.411Z,99622.25
2022-08-16T06:04:36.554Z,99619.87
2022-08-16T06:07:36.509Z,99618.84
2022-08-16T06:10:40.357Z,99610.25
2022-08-16T06:14:03.813Z,99613.03
2022-08-16T06:17:08.006Z,99609.91
2022-08-16T06:20:11.068Z,99617.22
2022-08-16T06:23:17.431Z,99612.34
2022-08-16T06:26:19.638Z,99611.94
2022-08-16T06:29:21.835Z,99611.78
2022-08-16T06:32:27.834Z,99608.72
2022-08-16T06:35:35.416Z,99607.69
2022-08-16T06:38:55.893Z,99618.44
2022-08-16T06:41:59.244Z,99614.53
2022-08-16T06:45:02.286Z,99612.94
2022-08-16T06:48:05.584Z,99620.16
2022-08-16T06:51:08.984Z,99626.47
2022-08-16T06:54:13.936Z,99625.97
2022-08-16T06:57:18.206Z,99625.25
2022-08-16T07:00:24.822Z,99639.22
2022-08-16T07:03:32.188Z,99634.03
2022-08-16T07:06:34.919Z,99639.28
2022-08-16T07:09:38.531Z,99639.88
2022-08-16T07:12:47.452Z,99638.72
2022-08-16T07:16:04.648Z,99641.72
2022-08-16T07:19:06.733Z,99651.25
2022-08-16T07:22:39.052Z,99648.28
2022-08-16T07:25:34.329Z,99648.41
2022-08-16T07:28:42.076Z,99644.69
2022-08-16T07:31:47.145Z,99640.00
2022-08-16T07:34:50.905Z,99631.22
2022-08-16T07:37:54.265Z,99636.41
2022-08-16T07:41:01.572Z,99631.53
2022-08-16T07:44:15.461Z,99637.50
2022-08-16T07:47:18.656Z,99636.72
2022-08-16T07:50:55.545Z,99634.84
2022-08-16T07:53:49.565Z,99641.28
2022-08-16T07:57:04.943Z,99642.09
2022-08-16T08:00:08.241Z,99641.88
2022-08-16T08:03:20.575Z,99635.59
2022-08-16T08:06:28.626Z,99639.47
2022-08-16T08:09:30.682Z,99634.31
2022-08-16T08:12:36.168Z,99640.28
2022-08-16T08:15:38.323Z,99636.28
2022-08-16T08:19:00.602Z,99646.38
2022-08-16T08:22:06.222Z,99645.78
2022-08-16T08:25:09.295Z,99637.88
2022-08-16T08:28:15.708Z,99648.41
2022-08-16T08:31:17.671Z,99639.50
2022-08-16T08:34:22.295Z,99637.75
2022-08-16T08:37:27.660Z,99633.63
2022-08-16T08:40:49.618Z,99631.03
2022-08-16T08:43:51.618Z,99629.31
2022-08-16T08:47:00.094Z,99641.53
2022-08-16T08:50:07.039Z,99640.19
2022-08-16T08:53:09.431Z,99643.53
2022-08-16T08:56:23.074Z,99637.28
2022-08-16T08:59:27.366Z,99632.63
2022-08-16T09:02:30.161Z,99634.44
2022-08-16T09:05:35.908Z,99628.03
2022-08-16T09:08:39.988Z,99627.31
2022-08-16T09:12:04.400Z,99632.03
2022-08-16T09:15:13.458Z,99634.38
2022-08-16T09:18:26.529Z,99641.94
2022-08-16T09:21:31.313Z,99637.09
2022-08-16T09:24:51.598Z,99638.31
2022-08-16T09:27:57.853Z,99632.06
2022-08-16T09:31:05.582Z,99630.91
2022-08-16T09:34:07.481Z,99632.63
2022-08-16T09:37:17.985Z,99628.06
2022-08-16T09:40:32.907Z,99630.41
2022-08-16T09:43:58.105Z,99624.75
2022-08-16T09:47:03.537Z,99619.87
2022-08-16T09:50:22.808Z,99630.78
2022-08-16T09:53:25.861Z,99616.59
2022-08-16T09:56:33.698Z,99618.78
2022-08-16T09:59:38.607Z,99622.44
2022-08-16T10:02:44.127Z,99626.91
2022-08-16T10:05:47.602Z,99628.63
2022-08-16T10:09:04.256Z,99626.81
2022-08-16T10:12:28.244Z,99625.28
2022-08-16T10:15:31.905Z,99632.25
2022-08-16T10:18:56.800Z,99622.88
2022-08-16T10:21:57.430Z,99620.44
2022-08-16T10:25:00.313Z,99613.47
2022-08-16T10:28:27.741Z,99616.41
2022-08-16T10:31:45.929Z,99611.81
2022-08-16T10:34:47.530Z,99607.41
2022-08-16T10:37:53.930Z,99605.28
2022-08-16T10:40:55.616Z,99610.78
2022-08-16T10:43:58.512Z,99604.13
2022-08-16T10:47:00.430Z,99605.91
2022-08-16T10:50:06.979Z,99606.16
2022-08-16T10:53:21.588Z,99598.31
2022-08-16T10:56:56.131Z,99600.78
2022-08-16T10:59:56.136Z,99603.56
2022-08-16T11:03:04.889Z,99599.50
2022-08-16T11:06:09.514Z,99595.94
2022-08-16T11:09:25.532Z,99591.75
2022-08-16T11:12:30.380Z,99593.06
2022-08-16T11:15:34.977Z,99604.69
2022-08-16T11:19:02.862Z,99598.25
2022-08-16T11:22:38.943Z,99599.16
2022-08-16T11:32:11.287Z,99589.28
2022-08-16T11:38:57.290Z,99590.50
2022-08-16T11:42:00.203Z,99579.34
2022-08-16T11:45:02.106Z,99584.66
2022-08-16T11:48:05.518Z,99591.13
2022-08-16T11:51:07.229Z,99588.06
2022-08-16T11:54:21.188Z,99596.69
2022-08-16T11:57:23.968Z,99586.62
2022-08-16T12:00:33.906Z,99587.97
2022-08-16T12:03:49.036Z,99582.44
2022-08-16T12:06:53.665Z,99584.91
2022-08-16T12:09:56.218Z,99584.78
2022-08-16T12:12:58.094Z,99584.25
2022-08-16T12:16:06.708Z,99575.53
2022-08-16T12:19:13.827Z,99576.72
2022-08-16T12:22:19.779Z,99578.12
2022-08-16T12:25:24.560Z,99570.97
2022-08-16T12:28:52.189Z,99570.81
2022-08-16T12:32:01.608Z,99575.38
2022-08-16T12:35:15.122Z,99578.06
2022-08-16T12:38:41.759Z,99585.59
2022-08-16T12:41:45.011Z,99570.09
2022-08-16T12:44:48.355Z,99571.72
2022-08-16T12:48:32.980Z,99567.31
2022-08-16T12:51:58.502Z,99562.00
2022-08-16T12:54:59.344Z,99557.59
2022-08-16T12:58:00.999Z,99561.13
2022-08-16T13:01:03.368Z,99565.47
2022-08-16T13:04:12.213Z,99563.16
2022-08-16T13:07:27.352Z,99555.00
2022-08-16T13:10:38.030Z,99572.94
2022-08-16T13:13:40.957Z,99570.69
2022-08-16T13:16:43.317Z,99567.16
2022-08-16T13:20:08.093Z,99564.31
2022-08-16T13:23:11.545Z,99556.88
2022-08-16T13:26:17.992Z,99556.88
2022-08-16T13:29:20.060Z,99555.72
2022-08-16T13:32:39.610Z,99564.50
2022-08-16T13:35:44.921Z,99553.44
2022-08-16T13:38:46.965Z,99550.72
2022-08-16T13:41:53.915Z,99544.50
2022-08-16T13:44:58.281Z,99546.50
2022-08-16T13:48:02.331Z,99540.59
2022-08-16T13:51:07.521Z,99526.84
2022-08-16T13:54:09.491Z,99527.91
2022-08-16T13:57:11.926Z,99530.63
2022-08-16T14:00:15.870Z,99538.09
2022-08-16T14:03:22.059Z,99527.94
2022-08-16T14:06:25.760Z,99528.84
2022-08-16T14:09:31.926Z,99526.06
2022-08-16T14:12:34.786Z,99535.97
2022-08-16T14:15:37.939Z,99530.09
2022-08-16T14:18:43.936Z,99535.16
2022-08-16T14:21:56.623Z,99536.13
2022-08-16T14:25:00.205Z,99528.22
2022-08-16T14:28:01.834Z,99536.84
2022-08-16T14:31:03.632Z,99522.88
2022-08-16T14:34:06.308Z,99534.38
2022-08-16T14:37:13.189Z,99533.06
2022-08-16T14:40:17.939Z,99544.94
2022-08-16T14:43:20.976Z,99530.41
2022-08-16T14:46:24.014Z,99538.72
2022-08-16T14:49:26.560Z,99539.97
2022-08-16T14:52:54.197Z,99538.50
2022-08-16T14:55:50.274Z,99545.31
2022-08-16T14:58:52.038Z,99537.16
2022-08-16T15:01:58.740Z,99545.78
2022-08-16T15:05:04.370Z,99534.63
2022-08-16T15:08:06.834Z,99540.12
2022-08-16T15:11:09.406Z,99547.00
2022-08-16T15:14:11.176Z,99549.16
2022-08-16T15:17:15.995Z,99544.53
2022-08-16T15:20:21.491Z,99547.38
2022-08-16T15:23:25.146Z,99544.28
2022-08-16T15:26:34.527Z,99543.19
2022-08-16T15:29:46.234Z,99538.19
2022-08-16T15:33:01.870Z,99541.75
2022-08-16T15:36:04.780Z,99546.31
2022-08-16T15:39:30.472Z,99546.75
2022-08-16T15:42:29.094Z,99540.34
2022-08-16T15:45:55.563Z,99544.34
2022-08-16T15:48:57.993Z,99546.19
2022-08-16T15:52:01.162Z,99550.47
2022-08-16T15:55:23.719Z,99551.81
2022-08-16T15:58:35.393Z,99560.63
2022-08-16T16:01:40.260Z,99559.09
2022-08-16T16:04:42.127Z,99561.53
2022-08-16T16:07:56.687Z,99565.53
2022-08-16T16:11:07.073Z,99574.47
2022-08-16T16:14:08.752Z,99575.44
2022-08-16T16:17:16.643Z,99571.78
2022-08-16T16:20:20.555Z,99578.75
2022-08-16T16:23:27.084Z,99579.53
2022-08-16T16:26:31.002Z,99586.12
2022-08-16T16:29:37.142Z,99582.81
2022-08-16T16:32:42.653Z,99579.28
2022-08-16T16:35:46.652Z,99575.19
2022-08-16T16:38:50.379Z,99583.19
2022-08-16T16:41:52.521Z,99581.75
2022-08-16T16:45:00.915Z,99581.19
2022-08-16T16:48:12.631Z,99592.31
2022-08-16T16:51:15.562Z,99601.34
2022-08-16T16:54:22.473Z,99607.72
2022-08-16T16:57:48.939Z,99620.81
2022-08-16T17:00:56.468Z,99623.75
2022-08-16T17:04:19.285Z,99632.06
2022-08-16T17:07:24.326Z,99638.25
2022-08-16T17:10:45.933Z,99644.66
2022-08-16T17:13:53.346Z,99643.06
2022-08-16T17:16:55.560Z,99648.44
2022-08-16T17:19:59.253Z,99660.41
2022-08-16T17:23:01.294Z,99659.94
2022-08-16T17:26:03.147Z,99660.41
2022-08-16T17:29:12.319Z,99664.03
2022-08-16T17:32:34.066Z,99666.50
2022-08-16T17:35:55.421Z,99665.78
2022-08-16T17:38:58.002Z,99677.03
2022-08-16T17:42:02.326Z,99667.78
2022-08-16T17:45:04.426Z,99683.97
2022-08-16T17:48:06.687Z,99681.78
2022-08-16T17:51:08.307Z,99681.25
2022-08-16T17:54:20.604Z,99671.75
2022-08-16T17:57:31.609Z,99670.28
2022-08-16T18:00:33.635Z,99682.00
2022-08-16T18:04:02.945Z,99677.19
2022-08-16T18:07:00.631Z,99675.78
2022-08-16T18:10:02.276Z,99675.47
2022-08-16T18:13:07.849Z,99672.56
2022-08-16T18:16:14.046Z,99673.44
2022-08-16T18:19:16.498Z,99678.28
2022-08-16T18:22:30.330Z,99675.47
2022-08-16T18:25:33.021Z,99672.66
2022-08-16T18:28:37.799Z,99669.94
2022-08-16T18:31:39.836Z,99673.28
2022-08-16T18:34:42.560Z,99680.09
2022-08-16T18:37:44.256Z,99687.97
2022-08-16T18:40:46.569Z,99695.00
2022-08-16T18:44:22.510Z,99696.25
2022-08-16T18:47:10.389Z,99697.69
2022-08-16T18:50:12.147Z,99708.34
2022-08-16T18:53:15.876Z,99706.50
2022-08-16T18:56:17.636Z,99710.78
2022-08-16T18:59:19.500Z,99716.81
2022-08-16T19:02:57.355Z,99714.94
2022-08-16T19:05:50.333Z,99720.78
2022-08-16T19:08:52.123Z,99723.19
2022-08-16T19:11:54.192Z,99725.34
2022-08-16T19:14:57.689Z,99731.16
2022-08-16T19:18:00.535Z,99733.69
2022-08-16T19:21:02.347Z,99734.34
2022-08-16T19:24:04.593Z,99733.44
2022-08-16T19:27:10.164Z,99733.16
2022-08-16T19:30:12.571Z,99723.59
2022-08-16T19:33:14.483Z,99719.66
2022-08-16T19:36:30.470Z,99716.47
2022-08-16T19:39:36.630Z,99715.78
2022-08-16T19:42:39.750Z,99718.00
2022-08-16T19:45:45.935Z,99721.06
2022-08-16T19:48:48.518Z,99732.72
2022-08-16T19:51:51.991Z,99730.25
2022-08-16T19:54:59.134Z,99726.28
2022-08-16T19:58:01.142Z,99729.31
2022-08-16T20:01:03.612Z,99726.25
2022-08-16T20:04:06.001Z,99727.50
2022-08-16T20:07:08.245Z,99730.88
2022-08-16T20:10:11.937Z,99736.38
2022-08-16T20:13:22.821Z,99734.16
2022-08-16T20:16:25.592Z,99738.56
2022-08-16T20:19:29.744Z,99736.72
2022-08-16T20:22:54.840Z,99739.12
2022-08-16T20:25:56.863Z,99737.22
2022-08-16T20:28:58.478Z,99754.88
2022-08-16T20:32:00.254Z,99758.34
2022-08-16T20:35:03.690Z,99762.34
2022-08-16T20:38:06.761Z,99765.72
2022-08-16T20:41:09.462Z,99763.19
2022-08-16T20:44:12.289Z,99756.91
2022-08-16T20:47:14.429Z,99749.72
2022-08-16T20:50:16.438Z,99749.72
2022-08-16T20:53:18.195Z,99754.00
2022-08-16T20:56:20.155Z,99746.94
2022-08-16T20:59:21.936Z,99755.69
2022-08-16T21:02:27.125Z,99761.19
2022-08-16T21:05:31.292Z,99757.47
2022-08-16T21:08:52.287Z,99750.47
2022-08-16T21:11:57.361Z,99752.75
2022-08-16T21:15:07.038Z,99746.16
2022-08-16T21:18:09.279Z,99748.16
2022-08-16T21:21:12.264Z,99743.78
2022-08-16T21:24:14.511Z,99746.00
2022-08-16T21:27:17.878Z,99738.62
2022-08-16T21:30:25.070Z,99755.72
2022-08-16T21:33:32.289Z,99758.63
2022-08-16T21:36:34.512Z,99763.66
2022-08-16T21:39:38.129Z,99773.53
2022-08-16T21:42:42.061Z,99759.25
2022-08-16T21:45:45.737Z,99774.00
2022-08-16T21:48:47.513Z,99781.47
2022-08-16T21:51:49.163Z,99795.94
2022-08-16T21:54:52.928Z,99788.19
2022-08-16T21:57:58.159Z,99790.97
2022-08-16T22:01:01.646Z,99784.78
2022-08-16T22:04:36.512Z,99784.03
2022-08-16T22:07:26.167Z,99795.87
2022-08-16T22:11:05.580Z,99792.69
2022-08-16T22:13:58.636Z,99787.16
2022-08-16T22:17:00.945Z,99786.81
2022-08-16T22:20:05.695Z,99788.59
2022-08-16T22:23:15.311Z,99786.19
2022-08-16T22:26:17.430Z,99788.97
2022-08-16T22:29:19.340Z,99797.66
2022-08-16T22:32:22.285Z,99795.75
2022-08-16T22:35:24.672Z,99799.31
2022-08-16T22:38:54.411Z,99797.63
2022-08-16T22:41:50.613Z,99800.97
2022-08-16T22:44:52.636Z,99787.00
2022-08-16T22:47:55.032Z,99788.84
2022-08-16T22:50:56.834Z,99784.44
2022-08-16T22:53:59.091Z,99785.22
2022-08-16T22:57:01.047Z,99785.94
2022-08-16T23:00:05.942Z,99789.34
2022-08-16T23:03:11.304Z,99789.38
2022-08-16T23:06:14.201Z,99784.94
2022-08-16T23:09:15.904Z,99796.56
2022-08-16T23:12:17.518Z,99795.87
2022-08-16T23:15:32.641Z,99790.56
2022-08-16T23:18:35.047Z,99791.44
2022-08-16T23:21:40.463Z,99797.22
2022-08-16T23:24:55.031Z,99795.75
2022-08-16T23:27:59.006Z,99788.66
2022-08-16T23:31:00.865Z,99787.41
2022-08-16T23:34:02.664Z,99782.13
2022-08-16T23:37:04.276Z,99792.75
2022-08-16T23:40:11.664Z,99795.06
2022-08-16T23:43:17.588Z,99790.28
2022-08-16T23:46:19.954Z,99797.66
2022-08-16T23:49:56.345Z,99802.41
2022-08-16T23:52:55.703Z,99793.00
2022-08-16T23:56:02.477Z,99798.97
2022-08-16T23:59:05.733Z,99801.38
